Airfield :







YOU CAN JOIN US ON...

 
LOGIN :

Register | Disclaimer

   EN    FR    IT 

 









Legend :    VFR   Marginal VFR   IFR   Intensive IFR   Very Intensive IFR
Visi :
Ceiling :
>= 8 km
>= 3000ft
5 to 8 km
1000 to 3000 ft
1500m to 5 km
500 to 1000 ft
800 to 1500m
200 to 500 ft
< 800m
< 200 ft
Symbols :   Thunderstorms  Fog  Heavy snow  Heavy precipitations  Wind > 20 kt






- Airport Elevation : 166 ft
- IATA code : YCX


CYCX - Gagetown Heliport

CURRENT METAR :
  • 260149Z AUTO 10002KT 9SM FEW009 OVC013 OVC079 M05/M07 A3022 RMK ICG INTMT

EXPIRED METARs :
  • 260142Z AUTO 08004KT 030V160 9SM FEW009 BKN015 BKN079 M06/M08 A3022 RMK ICG INTMT
  • 260133Z AUTO 10002KT 6SM FEW019 FEW079 M07/M08 A3023 RMK ICG INTMT
  • 260109Z AUTO 00000KT 9SM BKN019 BKN079 M06/M07 A3024 RMK ICG PAST HR
  • 260100Z AUTO 00000KT 7SM FEW019 FEW079 M05/M07 A3024 RMK ICG SLP245
  • 260000Z AUTO 05002KT 9SM CLR M04/M06 A3025 RMK SLP247
  • 252300Z AUTO 04003KT 9SM CLR M03/M05 A3029 RMK SLP260

Expired Forecast.



MET'MAP, your aeronautical weather chart ! - Copyright ORBIFLY December 2007 - Disclaimer

ORBIFLY MET'MAP TEAM :

Programming & Development : Alexandra Zaïnal
Concept & original design : Baudouin d'Aumeries
Assistance for programming : Marc-Olivier Méhu
Technical & hardware support : Manuel Goepfert

Contact : metmap@orbifly.com




SOURCES & CREDITS :

   NOAA